Logo Brunsvigian Airlines

Die löwenstarke Airline aus Braunschweig

Charts auf der Seite von VATEUD

EDTL 041750Z 05006KT 010V090 9999 -SHRA FEW010 SCT034 17/16 Q1018 RETSRA

flugnummerleerzeichenankunftleerzeichenplanmaessig
ABS601__BILLUND__________07doppelpunkt30
ABS603__BRAUNSCHWEIG_____11doppelpunkt30

flugnummerleerzeichenankunftleerzeichenplanmaessig
ABS600__BRAUNSCHWEIG_____07doppelpunkt00
ABS602__BILLUND__________11doppelpunkt00

Kontakt   Impressum

Valid HTML 4.01 Transitional CSS ist valide!